Time;durP1;ratioP1;P1;durP2;ratioP2;P2;SDS_P1;SDS_P2;PMS_P1;PMS_P2;Temp;Humidity;BMP_temperature;BMP_pressure;BME280_temperature;BME280_humidity;BME280_pressure;Samples;Min_cycle;Max_cycle;Signal;HPM_P1;HPM_P2
2021/12/16 00:07:13;;;;;;;0.30;0.30;;;;;;;6.92;100.00;96078.59;5051819;28;20594;-53
2021/12/16 00:09:53;;;;;;;0.50;0.50;;;;;;;6.81;100.00;96079.38;5051440;28;20504;-52
2021/12/16 00:29:22;;;;;;;1.07;1.07;;;;;;;6.52;100.00;96085.50;5051244;28;20509;-52
2021/12/16 00:31:56;;;;;;;0.40;0.30;;;;;;;6.19;100.00;96047.31;5051463;28;20470;-53
2021/12/16 00:34:29;;;;;;;0.60;0.60;;;;;;;6.08;100.00;96042.78;5051446;28;20442;-53
2021/12/16 00:36:58;;;;;;;1.03;0.93;;;;;;;6.79;100.00;96098.06;5051262;28;20513;-53
2021/12/16 00:39:29;;;;;;;0.97;0.97;;;;;;;7.17;100.00;96104.75;5051234;28;20450;-53
2021/12/16 00:42:04;;;;;;;0.47;0.37;;;;;;;7.08;100.00;96085.84;5051352;28;20489;-53
2021/12/16 00:47:34;;;;;;;0.63;0.63;;;;;;;7.43;97.91;96081.38;5050309;28;20430;-53
2021/12/16 00:50:20;;;;;;;0.83;0.83;;;;;;;6.73;100.00;96079.75;5051051;28;20926;-53
2021/12/16 00:55:45;;;;;;;7.70;0.57;;;;;;;6.63;100.00;96077.63;5055240;28;20516;-53
2021/12/16 00:58:17;;;;;;;1.53;1.43;;;;;;;6.66;100.00;96098.25;5054344;28;20457;-53
2021/12/16 01:00:54;;;;;;;3.87;3.77;;;;;;;6.48;100.00;96008.00;5055168;28;20465;-53
2021/12/16 01:03:31;;;;;;;0.40;0.40;;;;;;;6.68;100.00;96109.38;5055128;28;20430;-53
2021/12/16 01:09:04;;;;;;;0.93;0.93;;;;;;;6.92;100.00;96087.31;5051383;28;20477;-53
2021/12/16 01:34:04;;;;;;;0.43;0.43;;;;;;;6.89;100.00;96079.06;5054554;28;20422;-53
2021/12/16 01:36:49;;;;;;;0.73;0.73;;;;;;;7.06;100.00;96093.16;5054401;28;20493;-53
2021/12/16 01:42:29;;;;;;;0.40;0.40;;;;;;;6.57;100.00;96064.56;5054215;28;20516;-53
2021/12/16 01:48:00;;;;;;;0.47;0.30;;;;;;;6.83;100.00;96053.63;5053607;28;20950;-53
2021/12/16 01:50:33;;;;;;;3.33;3.03;;;;;;;7.04;100.00;96076.78;5053540;28;20462;-53
2021/12/16 01:53:17;;;;;;;0.30;0.20;;;;;;;6.96;100.00;96067.38;5053919;28;20430;-53
2021/12/16 01:55:54;;;;;;;0.50;0.40;;;;;;;7.01;100.00;96069.31;5054029;28;20414;-53
2021/12/16 01:58:27;;;;;;;0.40;0.30;;;;;;;6.60;100.00;96000.91;5053346;28;20517;-53
2021/12/16 02:01:11;;;;;;;1.93;0.90;;;;;;;6.84;100.00;96069.22;5054185;28;20497;-53
2021/12/16 02:03:48;;;;;;;0.30;0.30;;;;;;;6.76;100.00;96076.63;5053902;28;20430;-53
2021/12/16 02:06:40;;;;;;;0.57;0.57;;;;;;;6.37;100.00;96030.66;5053982;28;20462;-53
2021/12/16 02:09:17;;;;;;;1.03;1.03;;;;;;;6.81;100.00;96060.94;5053323;28;20528;-53
2021/12/16 02:11:53;;;;;;;0.40;0.27;;;;;;;5.92;100.00;95974.22;5053527;28;20509;-53
2021/12/16 02:28:47;;;;;;;0.30;0.20;;;;;;;6.26;100.00;96034.03;5052714;28;20525;-54
2021/12/16 02:36:47;;;;;;;0.40;0.37;;;;;;;6.65;100.00;96053.72;5047995;28;20528;-53
2021/12/16 02:39:21;;;;;;;0.43;0.40;;;;;;;6.62;100.00;96052.34;5053439;28;20526;-54
2021/12/16 02:41:54;;;;;;;0.30;0.30;;;;;;;6.49;100.00;96036.72;5052693;28;20473;-54
2021/12/16 02:44:30;;;;;;;0.30;0.30;;;;;;;6.49;100.00;96057.81;5053102;28;20505;-54
2021/12/16 02:49:50;;;;;;;0.40;0.40;;;;;;;5.83;100.00;95992.09;5052969;28;20529;-54
2021/12/16 02:52:23;;;;;;;1.47;1.37;;;;;;;5.64;100.00;96022.88;5052807;28;20433;-54
2021/12/16 02:54:54;;;;;;;1.17;1.17;;;;;;;5.19;100.00;96049.69;5052981;28;20458;-53
2021/12/16 02:57:24;;;;;;;1.63;1.33;;;;;;;4.71;100.00;96055.56;5052727;28;20454;-54
2021/12/16 02:59:53;;;;;;;1.23;1.23;;;;;;;4.51;100.00;96052.28;5051949;28;20494;-54
2021/12/16 03:02:25;;;;;;;0.30;0.30;;;;;;;4.05;100.00;96030.81;5052879;28;20517;-54
2021/12/16 03:04:55;;;;;;;0.30;0.20;;;;;;;4.33;100.00;96063.50;5052745;28;20565;-54
2021/12/16 03:07:24;;;;;;;0.53;0.53;;;;;;;4.33;100.00;96063.50;5053045;28;20453;-54
2021/12/16 03:12:49;;;;;;;0.33;0.30;;;;;;;4.34;100.00;96059.06;5008944;28;21072;-54
2021/12/16 03:15:30;;;;;;;0.30;0.30;;;;;;;4.21;100.00;96027.66;5052028;28;20458;-54
2021/12/16 03:18:05;;;;;;;1.13;1.13;;;;;;;4.28;100.00;96065.97;5052430;28;20858;-53
2021/12/16 03:20:41;;;;;;;0.43;0.30;;;;;;;3.94;100.00;96074.25;5051850;28;20856;-53
2021/12/16 03:23:33;;;;;;;2.13;1.67;;;;;;;4.08;100.00;96043.47;5052002;28;20474;-53
2021/12/16 03:26:33;;;;;;;0.60;0.60;;;;;;;4.57;100.00;96055.88;5052251;28;20520;-54
2021/12/16 03:31:59;;;;;;;0.43;0.43;;;;;;;5.08;100.00;96049.34;5052062;28;21020;-53
2021/12/16 03:34:37;;;;;;;0.40;0.37;;;;;;;5.25;100.00;96038.28;5052235;28;20429;-53
2021/12/16 03:37:14;;;;;;;2.20;2.20;;;;;;;5.43;100.00;96047.00;5051841;28;20468;-54
2021/12/16 03:39:47;;;;;;;0.90;0.90;;;;;;;5.04;100.00;96040.31;5052235;28;20429;-53
2021/12/16 03:42:20;;;;;;;0.40;0.40;;;;;;;3.60;100.00;95863.06;5052187;28;20425;-53
2021/12/16 03:44:54;;;;;;;0.37;0.30;;;;;;;3.42;100.00;95855.13;5052405;28;20557;-53
2021/12/16 03:47:29;;;;;;;0.40;0.37;;;;;;;3.30;100.00;95887.44;5052362;28;20898;-53
2021/12/16 03:49:58;;;;;;;0.40;0.40;;;;;;;4.41;100.00;96049.31;5051684;28;20458;-53
2021/12/16 03:52:27;;;;;;;0.30;0.20;;;;;;;4.35;100.00;95998.50;5051731;28;20426;-53
2021/12/16 03:54:58;;;;;;;0.40;0.30;;;;;;;5.11;100.00;96054.19;5051231;28;20450;-53
2021/12/16 03:57:30;;;;;;;0.50;0.50;;;;;;;4.96;100.00;96050.28;5052051;28;20438;-54
2021/12/16 03:59:59;;;;;;;0.70;0.50;;;;;;;4.92;100.00;96041.25;5051351;28;20531;-54
2021/12/16 04:02:32;;;;;;;0.30;0.20;;;;;;;4.44;100.00;95978.03;5051344;28;20464;-53
2021/12/16 04:05:01;;;;;;;0.30;0.30;;;;;;;4.43;100.00;95986.91;5052212;28;20553;-53
2021/12/16 04:07:33;;;;;;;0.60;0.60;;;;;;;4.73;100.00;96044.84;5051286;28;20464;-53
2021/12/16 04:10:06;;;;;;;0.30;0.20;;;;;;;4.96;100.00;96053.72;5051908;28;20525;-53
2021/12/16 04:12:36;;;;;;;0.30;0.20;;;;;;;4.03;100.00;95991.66;5051704;28;20422;-53
2021/12/16 04:15:08;;;;;;;0.50;0.50;;;;;;;4.79;100.00;96059.75;5052105;28;20457;-53
2021/12/16 04:17:38;;;;;;;0.30;0.30;;;;;;;4.08;100.00;96004.13;5051714;28;20470;-53
2021/12/16 04:20:24;;;;;;;1.13;1.13;;;;;;;4.66;100.00;96058.03;5051864;28;20507;-54
2021/12/16 04:22:53;;;;;;;0.30;0.30;;;;;;;4.41;100.00;96063.25;5050886;28;20434;-53
2021/12/16 04:25:28;;;;;;;0.60;0.60;;;;;;;3.67;100.00;95994.88;5051802;28;20498;-53
2021/12/16 04:28:01;;;;;;;0.40;0.40;;;;;;;4.37;100.00;96066.53;5053921;28;20588;-53
2021/12/16 04:30:31;;;;;;;0.83;0.83;;;;;;;3.87;100.00;96068.22;5056032;28;20849;-53
2021/12/16 04:33:00;;;;;;;0.40;0.33;;;;;;;4.01;100.00;96063.69;5054855;28;20426;-53
2021/12/16 04:35:28;;;;;;;2.13;2.13;;;;;;;3.57;100.00;96073.16;5055520;28;20525;-53
2021/12/16 04:37:57;;;;;;;1.63;1.53;;;;;;;3.00;100.00;95986.69;5055642;28;20890;-53
2021/12/16 04:40:27;;;;;;;0.80;0.80;;;;;;;2.02;100.00;95888.25;5055697;28;20530;-53
2021/12/16 04:43:01;;;;;;;0.93;0.93;;;;;;;3.15;100.00;96084.16;5055786;28;20845;-53
2021/12/16 04:45:33;;;;;;;0.40;0.30;;;;;;;2.09;100.00;95841.97;5055520;28;20465;-53
2021/12/16 04:48:03;;;;;;;11.43;2.70;;;;;;;3.72;100.00;96126.16;5055357;28;20458;-53
2021/12/16 04:50:31;;;;;;;0.50;0.40;;;;;;;3.39;100.00;96064.38;5055808;28;20505;-53
2021/12/16 04:53:00;;;;;;;0.40;0.30;;;;;;;3.12;100.00;96058.38;5055343;28;20516;-53
2021/12/16 04:55:28;;;;;;;0.43;0.40;;;;;;;2.84;100.00;96063.84;5055693;28;20541;-53
2021/12/16 04:57:57;;;;;;;0.90;0.90;;;;;;;2.53;100.00;95993.00;5055599;28;20434;-53
2021/12/16 05:00:27;;;;;;;1.07;0.63;;;;;;;2.88;100.00;96079.97;5054950;28;20477;-53
2021/12/16 05:02:57;;;;;;;4.00;1.43;;;;;;;2.49;100.00;96051.97;5055385;28;20784;-54
2021/12/16 05:05:26;;;;;;;1.00;1.00;;;;;;;2.88;100.00;96079.97;5054698;28;20475;-54
2021/12/16 05:07:54;;;;;;;0.77;0.77;;;;;;;3.07;100.00;96094.84;5054904;28;20422;-53
2021/12/16 05:10:24;;;;;;;1.67;1.27;;;;;;;2.95;100.00;96075.53;5054961;28;20430;-54
2021/12/16 05:12:58;;;;;;;1.97;1.60;;;;;;;1.56;100.00;95880.38;5055439;28;20453;-53
2021/12/16 05:15:33;;;;;;;0.40;0.40;;;;;;;2.82;100.00;96075.53;5054135;28;20460;-54
2021/12/16 05:18:06;;;;;;;1.83;1.00;;;;;;;2.67;100.00;96080.16;5055310;28;20433;-54
2021/12/16 05:20:38;;;;;;;0.93;0.90;;;;;;;2.09;100.00;95985.78;5054002;28;20434;-54
2021/12/16 05:26:20;;;;;;;3.50;1.90;;;;;;;2.25;100.00;96040.28;5054677;28;20473;-53
2021/12/16 05:28:52;;;;;;;1.63;0.60;;;;;;;2.47;100.00;96088.81;5054648;28;20530;-53
2021/12/16 05:31:24;;;;;;;1.43;1.43;;;;;;;2.41;100.00;96079.16;5054633;28;20419;-56
2021/12/16 05:33:56;;;;;;;1.23;0.97;;;;;;;2.41;100.00;96075.72;5055081;28;20426;-53
2021/12/16 05:36:24;;;;;;;0.30;0.30;;;;;;;2.45;100.00;96082.97;5055121;28;20484;-53
2021/12/16 05:38:53;;;;;;;0.43;0.43;;;;;;;2.54;100.00;96063.47;5053890;28;20938;-53
2021/12/16 05:41:23;;;;;;;0.40;0.40;;;;;;;2.13;100.00;96020.16;5055127;28;20426;-54
2021/12/16 05:43:53;;;;;;;0.40;0.23;;;;;;;2.89;100.00;96071.91;5054363;28;20445;-53
2021/12/16 05:46:23;;;;;;;0.73;0.73;;;;;;;2.73;100.00;96072.34;5053615;28;21054;-53
2021/12/16 05:48:54;;;;;;;1.30;1.30;;;;;;;2.56;100.00;96076.34;5053970;28;20433;-53
2021/12/16 05:51:31;;;;;;;0.50;0.43;;;;;;;2.75;100.00;96075.56;5053744;28;20440;-53
2021/12/16 05:54:02;;;;;;;0.30;0.20;;;;;;;2.97;100.00;96081.38;5053560;28;20513;-53
2021/12/16 05:56:31;;;;;;;1.33;0.40;;;;;;;2.07;100.00;95979.94;5053520;28;20465;-53
2021/12/16 05:59:00;;;;;;;0.30;0.30;;;;;;;2.68;100.00;96076.56;5053763;28;20486;-53
2021/12/16 06:01:33;;;;;;;0.40;0.40;;;;;;;2.77;100.00;96067.47;5053992;28;20805;-53
2021/12/16 06:04:03;;;;;;;0.60;0.60;;;;;;;2.62;100.00;96041.53;5053956;28;20480;-53
2021/12/16 06:06:32;;;;;;;0.80;0.80;;;;;;;2.98;100.00;96085.59;5053603;28;20473;-53
2021/12/16 06:09:01;;;;;;;0.77;0.67;;;;;;;2.73;100.00;96040.13;5054160;28;20426;-53
2021/12/16 06:11:32;;;;;;;0.97;0.97;;;;;;;2.68;100.00;96060.84;5053634;28;20973;-54
2021/12/16 06:14:11;;;;;;;0.30;0.20;;;;;;;2.33;100.00;96028.81;5053610;28;20462;-54
2021/12/16 06:22:43;;;;;;;0.70;0.70;;;;;;;2.91;100.00;96082.19;5053551;28;20838;-54
2021/12/16 06:28:05;;;;;;;0.73;0.73;;;;;;;3.78;100.00;96086.00;5053040;28;20547;-54
2021/12/16 06:30:36;;;;;;;0.90;0.90;;;;;;;2.93;100.00;95985.91;5053524;28;20923;-54
2021/12/16 06:33:08;;;;;;;0.57;0.50;;;;;;;3.58;100.00;96077.41;5053179;28;20512;-54
2021/12/16 06:35:38;;;;;;;1.37;0.73;;;;;;;3.77;100.00;96068.66;5053204;28;20861;-54
2021/12/16 06:38:07;;;;;;;0.30;0.20;;;;;;;3.60;100.00;95973.16;5053296;28;20484;-53
2021/12/16 06:40:35;;;;;;;0.83;0.50;;;;;;;4.19;100.00;95983.28;5052278;28;20465;-53
2021/12/16 06:43:06;;;;;;;0.47;0.47;;;;;;;5.58;100.00;96072.94;5053462;28;20430;-53
2021/12/16 06:45:38;;;;;;;0.50;0.47;;;;;;;5.49;95.29;96069.78;5053325;28;20422;-53
2021/12/16 06:48:11;;;;;;;0.40;0.33;;;;;;;5.48;94.95;96073.44;5053051;28;20505;-53
2021/12/16 06:50:47;;;;;;;0.80;0.80;;;;;;;5.49;94.85;96080.28;5052501;28;20454;-53
2021/12/16 06:53:24;;;;;;;0.77;0.77;;;;;;;5.49;91.22;96075.03;5052812;28;20525;-53
2021/12/16 06:56:01;;;;;;;0.30;0.30;;;;;;;5.58;89.47;96071.09;5053057;28;20417;-52
2021/12/16 06:58:35;;;;;;;0.40;0.30;;;;;;;6.38;85.16;96059.38;5052525;28;20462;-52
2021/12/16 07:01:12;;;;;;;0.37;0.30;;;;;;;6.53;82.50;96081.88;5052826;28;20517;-52
2021/12/16 07:03:47;;;;;;;0.40;0.30;;;;;;;5.84;82.55;96083.16;5052983;28;20452;-52
2021/12/16 07:06:20;;;;;;;0.83;0.83;;;;;;;5.91;84.41;96081.28;5052765;28;20444;-52
2021/12/16 07:08:56;;;;;;;0.40;0.30;;;;;;;5.95;85.45;96071.09;5051756;28;20434;-52
2021/12/16 07:11:24;;;;;;;0.47;0.43;;;;;;;6.46;83.40;96081.13;5052131;28;20941;-52
2021/12/16 07:13:58;;;;;;;1.00;0.93;;;;;;;6.60;78.69;96072.03;5052359;28;20454;-52
2021/12/16 07:16:29;;;;;;;0.57;0.50;;;;;;;7.52;71.63;96072.06;5052164;28;20426;-51
2021/12/16 07:18:59;;;;;;;3.40;1.20;;;;;;;7.57;72.06;96074.00;5051906;28;20508;-51
2021/12/16 07:21:29;;;;;;;0.97;0.90;;;;;;;8.05;67.29;96078.94;5051759;28;20504;-51
2021/12/16 07:23:57;;;;;;;2.33;2.23;;;;;;;7.29;65.24;95886.72;5052719;28;20533;-51
2021/12/16 07:26:26;;;;;;;12.30;1.87;;;;;;;8.05;66.42;96073.66;5051881;28;20962;-51
2021/12/16 07:28:54;;;;;;;0.57;0.50;;;;;;;7.57;64.27;96027.34;5052513;28;20922;-52
2021/12/16 07:31:23;;;;;;;1.93;1.13;;;;;;;8.73;60.60;96070.97;5051768;28;20435;-52
2021/12/16 07:33:53;;;;;;;1.40;0.70;;;;;;;9.67;60.57;96062.09;5052114;28;20414;-52
2021/12/16 07:36:22;;;;;;;1.13;1.00;;;;;;;8.75;55.83;95866.19;5052293;28;20922;-52
2021/12/16 07:38:53;;;;;;;3.77;1.30;;;;;;;10.18;56.75;96064.34;5052356;28;20466;-53
2021/12/16 07:41:26;;;;;;;0.50;0.50;;;;;;;9.92;54.10;96012.09;5052241;28;20446;-53
2021/12/16 07:43:58;;;;;;;3.37;1.80;;;;;;;10.76;51.54;96004.47;5052034;28;20426;-53
2021/12/16 07:46:30;;;;;;;0.30;0.20;;;;;;;10.79;52.25;96063.09;5051908;28;20437;-54
2021/12/16 07:48:59;;;;;;;0.70;0.60;;;;;;;11.09;50.63;96057.25;5051735;28;20517;-54
2021/12/16 07:51:27;;;;;;;1.10;0.43;;;;;;;11.70;50.03;96055.81;5052408;28;20642;-55
2021/12/16 07:53:57;;;;;;;0.67;0.50;;;;;;;10.76;49.24;96055.66;5051642;28;20949;-56
2021/12/16 07:56:26;;;;;;;0.53;0.50;;;;;;;11.30;50.52;96066.97;5052012;28;20476;-56
2021/12/16 07:58:55;;;;;;;4.03;0.70;;;;;;;11.60;51.18;96046.97;5051259;28;21051;-56
2021/12/16 08:01:24;;;;;;;3.13;1.03;;;;;;;11.39;51.83;96065.41;5051535;28;20468;-57
2021/12/16 08:03:54;;;;;;;1.77;1.27;;;;;;;11.83;47.65;96063.31;5051177;28;20513;-58
2021/12/16 08:06:26;;;;;;;0.90;0.90;;;;;;;11.97;50.78;96061.78;5051311;28;20441;-57
2021/12/16 08:08:59;;;;;;;0.90;0.90;;;;;;;12.70;46.68;96051.88;5051951;28;20500;-57
2021/12/16 08:11:30;;;;;;;1.80;1.10;;;;;;;13.33;45.79;96048.72;5051733;28;20867;-56
2021/12/16 08:14:03;;;;;;;0.83;0.83;;;;;;;13.70;42.86;96003.09;5051477;28;20793;-56
2021/12/16 08:16:33;;;;;;;0.80;0.50;;;;;;;13.86;42.75;96060.59;5051751;28;20430;-56
2021/12/16 08:19:02;;;;;;;1.07;1.07;;;;;;;13.68;44.35;96037.22;5051291;28;20423;-55
2021/12/16 08:21:30;;;;;;;0.80;0.63;;;;;;;14.26;45.54;96030.31;5051917;28;20430;-55
2021/12/16 08:24:03;;;;;;;1.37;1.37;;;;;;;13.63;43.44;96050.56;5051654;28;20521;-54
2021/12/16 08:26:32;;;;;;;1.33;1.23;;;;;;;14.15;48.48;96054.63;5051272;28;20946;-54
2021/12/16 08:29:01;;;;;;;4.50;1.63;;;;;;;13.69;43.19;96054.78;5050758;28;20847;-54
2021/12/16 08:31:31;;;;;;;1.30;1.30;;;;;;;13.75;43.42;96064.38;5051272;28;20462;-54
2021/12/16 08:34:00;;;;;;;1.43;1.33;;;;;;;13.71;42.76;96046.53;5051596;28;20979;-54
2021/12/16 08:36:29;;;;;;;1.90;1.47;;;;;;;13.62;43.53;96074.78;5051721;28;20495;-54
2021/12/16 08:38:58;;;;;;;1.90;0.83;;;;;;;13.52;43.83;96074.78;5051766;28;20501;-54
2021/12/16 08:41:34;;;;;;;0.83;0.83;;;;;;;14.58;43.19;96029.88;5050902;28;20434;-53
2021/12/16 08:44:03;;;;;;;27.30;1.20;;;;;;;14.96;42.57;96050.44;5051643;28;20978;-53
2021/12/16 08:46:34;;;;;;;3.13;1.77;;;;;;;15.67;42.61;96060.53;5051702;28;20868;-53
2021/12/16 08:49:03;;;;;;;4.20;0.87;;;;;;;15.27;40.37;96030.44;5051206;28;20501;-53
2021/12/16 08:51:35;;;;;;;0.80;0.80;;;;;;;16.10;38.84;96051.50;5051300;28;20434;-53
2021/12/16 08:54:04;;;;;;;1.33;1.10;;;;;;;15.43;39.46;96046.31;5051010;28;20441;-53
2021/12/16 08:56:34;;;;;;;1.30;1.23;;;;;;;16.08;37.98;96026.13;5051385;28;20445;-53
2021/12/16 08:59:05;;;;;;;1.43;1.37;;;;;;;16.14;36.28;95875.22;5050966;28;20521;-52
2021/12/16 09:01:37;;;;;;;6.60;0.87;;;;;;;18.11;35.04;96025.31;5051342;28;20468;-51
2021/12/16 09:04:06;;;;;;;0.83;0.83;;;;;;;18.51;32.78;96021.78;5051594;28;20512;-52
2021/12/16 09:06:35;;;;;;;1.77;1.43;;;;;;;16.85;36.51;95974.75;5051629;28;20434;-52
2021/12/16 09:09:06;;;;;;;2.80;2.70;;;;;;;17.01;34.95;96020.81;5051040;28;20523;-52
2021/12/16 09:11:42;;;;;;;3.03;1.93;;;;;;;17.17;36.18;96016.00;5051121;28;20466;-53
2021/12/16 09:14:11;;;;;;;1.50;1.13;;;;;;;17.09;33.72;95948.63;5054087;28;20837;-52
2021/12/16 09:16:39;;;;;;;0.60;0.50;;;;;;;18.37;33.10;96002.19;5054382;28;20521;-53
2021/12/16 09:19:08;;;;;;;0.90;0.90;;;;;;;17.30;35.23;96005.34;5054885;28;20492;-53
2021/12/16 09:21:37;;;;;;;1.93;0.50;;;;;;;16.11;37.02;96004.97;5054963;28;20493;-53
2021/12/16 09:24:07;;;;;;;1.90;1.33;;;;;;;15.18;37.68;96007.25;5054912;28;20430;-53
2021/12/16 09:26:37;;;;;;;1.37;1.27;;;;;;;16.16;35.92;95996.88;5054989;28;20526;-53
2021/12/16 09:29:06;;;;;;;1.53;0.40;;;;;;;17.11;35.98;95991.19;5054447;28;20548;-53
2021/12/16 09:31:35;;;;;;;1.23;1.23;;;;;;;16.76;36.06;95991.75;5054671;28;20988;-51
2021/12/16 09:34:06;;;;;;;1.80;0.70;;;;;;;14.82;37.02;95944.59;5054212;28;20434;-52
2021/12/16 09:36:38;;;;;;;0.50;0.43;;;;;;;16.14;37.32;95979.53;5054663;28;20451;-53
2021/12/16 09:39:11;;;;;;;0.40;0.30;;;;;;;16.90;36.25;95980.00;5054083;28;20760;-52
2021/12/16 09:41:43;;;;;;;0.50;0.50;;;;;;;17.33;35.89;95972.56;5054481;28;20492;-53
2021/12/16 09:44:12;;;;;;;0.50;0.50;;;;;;;16.48;35.90;95972.88;5054377;28;20529;-52
2021/12/16 09:46:44;;;;;;;0.40;0.40;;;;;;;17.73;35.08;95955.00;5054359;28;20418;-52
2021/12/16 09:49:13;;;;;;;0.87;0.87;;;;;;;16.75;34.73;95960.72;5054204;28;20528;-52
2021/12/16 09:51:43;;;;;;;4.27;0.70;;;;;;;18.52;32.67;95942.81;5054059;28;20978;-52
2021/12/16 09:54:15;;;;;;;1.10;1.03;;;;;;;18.75;32.24;95946.31;5054223;28;20461;-52
2021/12/16 09:56:47;;;;;;;0.60;0.40;;;;;;;17.19;36.01;95950.34;5054095;28;20921;-52
2021/12/16 09:59:16;;;;;;;1.57;1.47;;;;;;;16.79;35.21;95943.00;5053866;28;20470;-52
2021/12/16 10:01:47;;;;;;;0.60;0.53;;;;;;;17.87;34.06;95923.59;5053717;28;20499;-52
2021/12/16 10:04:19;;;;;;;1.23;1.10;;;;;;;17.55;34.39;95932.56;5053927;28;20496;-52
2021/12/16 10:06:51;;;;;;;1.27;0.83;;;;;;;19.27;31.30;95926.75;5054292;28;20418;-53
2021/12/16 10:09:21;;;;;;;1.10;1.03;;;;;;;18.86;32.36;95924.28;5053943;28;20921;-53
2021/12/16 10:11:53;;;;;;;1.00;0.80;;;;;;;19.18;31.29;95925.09;5053864;28;20450;-53
2021/12/16 10:14:43;;;;;;;1.80;0.70;;;;;;;20.62;30.49;95921.22;5053676;28;20898;-53
2021/12/16 10:17:24;;;;;;;0.67;0.67;;;;;;;21.80;28.53;95909.66;5053551;28;20517;-53
2021/12/16 10:19:54;;;;;;;1.03;0.97;;;;;;;21.79;27.46;95909.97;5053590;28;20430;-53
2021/12/16 10:22:28;;;;;;;0.40;0.30;;;;;;;22.42;27.38;95900.84;5054060;28;20461;-52
2021/12/16 10:25:16;;;;;;;0.40;0.30;;;;;;;19.16;30.61;95908.50;5053398;28;20976;-53
2021/12/16 10:27:58;;;;;;;1.20;1.17;;;;;;;20.74;32.18;95896.34;5053108;28;20438;-53
2021/12/16 10:30:39;;;;;;;0.43;0.33;;;;;;;20.61;29.34;95887.34;5053769;28;20458;-53
2021/12/16 10:33:13;;;;;;;1.20;0.43;;;;;;;20.98;28.55;95890.44;5053594;28;20462;-52
2021/12/16 10:35:47;;;;;;;0.60;0.60;;;;;;;19.59;31.88;95885.28;5053315;28;20505;-53
2021/12/16 10:38:18;;;;;;;0.50;0.40;;;;;;;19.11;31.49;95890.59;5053261;28;20910;-53
2021/12/16 10:40:50;;;;;;;1.37;1.30;;;;;;;18.65;32.20;95874.84;5053609;28;20805;-53
2021/12/16 10:43:30;;;;;;;3.27;1.17;;;;;;;19.26;32.93;95866.00;5053253;28;20873;-53
2021/12/16 10:46:02;;;;;;;0.80;0.80;;;;;;;17.50;33.87;95856.78;5053143;28;20461;-53
2021/12/16 10:48:34;;;;;;;0.90;0.87;;;;;;;17.13;33.47;95700.53;5052107;28;20517;-52
2021/12/16 10:51:27;;;;;;;0.67;0.67;;;;;;;16.19;35.41;95776.97;5052999;28;20470;-52
2021/12/16 10:54:02;;;;;;;0.67;0.67;;;;;;;18.33;32.92;95845.56;5053039;28;21009;-52
2021/12/16 10:56:37;;;;;;;6.20;0.90;;;;;;;19.73;31.46;95851.00;5053286;28;20491;-52
2021/12/16 10:59:11;;;;;;;0.60;0.30;;;;;;;20.98;29.04;95833.84;5052704;28;20478;-52
2021/12/16 11:01:50;;;;;;;7.20;1.30;;;;;;;20.22;29.68;95829.03;5053126;28;20468;-52
2021/12/16 11:04:26;;;;;;;1.07;0.83;;;;;;;20.05;30.72;95815.59;5052465;28;20454;-52
2021/12/16 11:06:59;;;;;;;2.43;2.00;;;;;;;18.23;33.70;95833.19;5052978;28;20528;-52
2021/12/16 11:09:44;;;;;;;0.80;0.80;;;;;;;18.49;33.05;95838.75;5052249;28;20565;-52
2021/12/16 11:12:36;;;;;;;0.53;0.50;;;;;;;16.67;35.27;95776.72;5052604;28;20981;-52
2021/12/16 11:15:11;;;;;;;1.07;0.97;;;;;;;16.50;35.25;95759.31;5052937;28;20507;-52
2021/12/16 11:17:43;;;;;;;1.90;1.10;;;;;;;17.74;33.42;95823.28;5052503;28;20425;-52
2021/12/16 11:20:31;;;;;;;0.73;0.73;;;;;;;18.68;33.40;95777.59;5052326;28;20462;-56
2021/12/16 11:23:03;;;;;;;0.93;0.93;;;;;;;17.95;34.99;95796.03;5052379;28;20468;-55
2021/12/16 11:25:34;;;;;;;1.53;1.43;;;;;;;18.93;32.26;95811.03;5052658;28;20458;-55
2021/12/16 11:28:20;;;;;;;1.23;1.00;;;;;;;18.53;33.55;95818.25;5052445;28;20544;-55
2021/12/16 11:30:57;;;;;;;2.20;0.40;;;;;;;17.40;33.34;95654.13;5052314;28;20466;-55
2021/12/16 11:33:30;;;;;;;0.80;0.80;;;;;;;18.85;32.18;95807.19;5052229;28;20422;-55
2021/12/16 11:36:08;;;;;;;0.57;0.57;;;;;;;19.96;31.89;95787.88;5051928;28;20426;-55
2021/12/16 11:38:41;;;;;;;17.73;1.13;;;;;;;19.01;32.38;95789.56;5052281;28;20935;-55
2021/12/16 11:41:35;;;;;;;8.03;1.70;;;;;;;16.56;34.36;95791.34;5052171;28;20454;-55
2021/12/16 11:44:08;;;;;;;1.40;0.60;;;;;;;15.72;36.54;95798.56;5052546;28;20453;-55
2021/12/16 11:46:42;;;;;;;1.13;1.13;;;;;;;15.39;36.23;95791.50;5051983;28;20521;-55
2021/12/16 11:49:22;;;;;;;1.30;1.03;;;;;;;16.79;36.40;95791.19;5051989;28;20977;-55
2021/12/16 11:51:56;;;;;;;1.03;1.00;;;;;;;16.59;35.59;95790.78;5051890;28;20433;-55
2021/12/16 11:54:27;;;;;;;1.37;1.30;;;;;;;17.41;34.51;95787.00;5051222;28;20800;-55
2021/12/16 11:57:02;;;;;;;2.07;1.40;;;;;;;17.59;35.84;95777.25;5051910;28;20509;-55
2021/12/16 11:59:36;;;;;;;2.10;0.70;;;;;;;16.90;37.86;95789.13;5051383;28;20469;-50
2021/12/16 12:02:07;;;;;;;1.37;1.27;;;;;;;17.00;34.57;95781.66;5052141;28;20868;-50
2021/12/16 12:04:37;;;;;;;0.60;0.40;;;;;;;17.16;34.48;95774.13;5051763;28;20763;-50
2021/12/16 12:07:14;;;;;;;1.10;0.90;;;;;;;16.75;35.10;95779.47;5051793;28;20423;-50
2021/12/16 12:09:46;;;;;;;0.50;0.30;;;;;;;17.22;34.41;95775.63;5051618;28;20469;-50
2021/12/16 12:12:15;;;;;;;1.20;0.97;;;;;;;16.48;35.83;95774.88;5051890;28;20434;-50
2021/12/16 12:14:46;;;;;;;1.00;1.00;;;;;;;15.70;35.99;95774.03;5051628;28;20458;-50
2021/12/16 12:17:20;;;;;;;5.13;1.10;;;;;;;17.08;35.77;95772.16;5051522;28;20456;-50
2021/12/16 12:19:52;;;;;;;1.17;0.67;;;;;;;17.14;34.71;95770.97;5051543;28;20466;-50
2021/12/16 12:22:24;;;;;;;2.03;0.70;;;;;;;17.48;36.01;95779.34;5051635;28;20469;-50
2021/12/16 12:24:53;;;;;;;0.90;0.70;;;;;;;16.98;36.07;95772.34;5052034;28;20454;-49
2021/12/16 12:27:25;;;;;;;0.50;0.40;;;;;;;17.06;34.67;95780.50;5051548;28;20465;-50
2021/12/16 12:29:55;;;;;;;2.00;0.57;;;;;;;15.21;37.83;95793.88;5051550;28;20461;-49
2021/12/16 12:32:27;;;;;;;0.90;0.80;;;;;;;15.24;38.17;95787.16;5051580;28;20434;-49
2021/12/16 12:34:59;;;;;;;1.23;1.13;;;;;;;14.85;38.53;95784.69;5051690;28;20427;-50
2021/12/16 12:37:31;;;;;;;0.70;0.53;;;;;;;15.50;37.52;95785.78;5051515;28;20946;-51
2021/12/16 12:40:03;;;;;;;2.70;0.97;;;;;;;14.51;37.96;95790.16;5051597;28;20484;-51
2021/12/16 12:42:32;;;;;;;0.80;0.80;;;;;;;14.40;38.98;95795.84;5051480;28;20465;-51
2021/12/16 12:45:02;;;;;;;0.50;0.40;;;;;;;16.13;36.47;95791.53;5051165;28;20922;-51
2021/12/16 12:47:35;;;;;;;2.20;1.00;;;;;;;15.11;38.24;95806.56;5051445;28;20520;-51
2021/12/16 12:50:16;;;;;;;1.53;1.43;;;;;;;15.01;37.12;95804.00;5055218;28;20473;-51
2021/12/16 12:52:48;;;;;;;1.53;1.50;;;;;;;14.44;37.07;95723.00;5055629;28;20521;-51
2021/12/16 12:55:20;;;;;;;0.50;0.50;;;;;;;14.34;38.23;95816.44;5055305;28;20461;-51
2021/12/16 12:57:49;;;;;;;1.23;1.10;;;;;;;13.24;39.62;95813.41;5055318;28;20509;-51
2021/12/16 13:00:27;;;;;;;1.63;0.70;;;;;;;14.22;38.93;95820.53;5054748;28;20539;-51
2021/12/16 13:03:03;;;;;;;0.50;0.50;;;;;;;15.18;38.59;95810.47;5055392;28;20877;-52
2021/12/16 13:05:32;;;;;;;0.50;0.40;;;;;;;14.30;37.56;95774.56;5055345;28;20465;-51
2021/12/16 13:08:04;;;;;;;0.50;0.40;;;;;;;14.82;37.72;95793.28;5055045;28;20517;-51
2021/12/16 13:10:36;;;;;;;0.53;0.50;;;;;;;15.06;38.85;95822.63;5054488;28;20547;-51
2021/12/16 13:16:13;;;;;;;4.93;0.70;;;;;;;15.01;37.84;95818.16;5051732;28;20528;-51
2021/12/16 13:24:56;;;;;;;0.40;0.20;;;;;;;14.93;37.53;95824.09;5054707;28;20517;-51
2021/12/16 13:27:33;;;;;;;0.73;0.57;;;;;;;14.00;37.71;95795.09;5054497;28;20517;-52
2021/12/16 13:30:17;;;;;;;0.70;0.30;;;;;;;13.88;39.13;95813.31;5054117;28;20497;-52
2021/12/16 13:33:14;;;;;;;1.17;1.13;;;;;;;13.76;39.04;95823.50;5054401;28;20999;-53
2021/12/16 13:35:50;;;;;;;0.63;0.50;;;;;;;14.16;37.95;95745.13;5054433;28;20457;-52
2021/12/16 13:38:21;;;;;;;0.70;0.50;;;;;;;14.15;38.92;95831.50;5054341;28;20969;-53
2021/12/16 13:40:52;;;;;;;0.60;0.47;;;;;;;12.46;41.58;95828.25;5054749;28;20468;-53
2021/12/16 13:43:26;;;;;;;0.77;0.77;;;;;;;12.50;44.09;95825.84;5054306;28;20465;-53
2021/12/16 13:46:21;;;;;;;0.93;0.93;;;;;;;12.64;41.68;95821.56;5054167;28;20442;-53
2021/12/16 13:58:07;;;;;;;5.13;3.23;;;;;;;12.24;42.86;95821.63;5054346;28;20430;-53
2021/12/16 14:03:23;;;;;;;0.50;0.40;;;;;;;10.73;45.81;95829.97;5053774;28;20434;-54